sensor_id;sensor_type;location;lat;lon;timestamp;pressure;altitude;pressure_sealevel;temperature;humidity
81628;BME280;71036;51.102;6.514;2024-03-02T00:02:13;99283.81;;;8.74;85.24
81628;BME280;71036;51.102;6.514;2024-03-02T00:04:39;99281.53;;;8.70;85.39
81628;BME280;71036;51.102;6.514;2024-03-02T00:07:04;99285.75;;;8.82;84.59
81628;BME280;71036;51.102;6.514;2024-03-02T00:09:30;99284.06;;;8.81;84.74
81628;BME280;71036;51.102;6.514;2024-03-02T00:11:55;99284.34;;;8.78;85.70
81628;BME280;71036;51.102;6.514;2024-03-02T00:14:20;99286.63;;;8.82;85.13
81628;BME280;71036;51.102;6.514;2024-03-02T00:16:46;99289.00;;;8.76;85.62
81628;BME280;71036;51.102;6.514;2024-03-02T00:19:11;99295.63;;;8.81;85.20
81628;BME280;71036;51.102;6.514;2024-03-02T00:21:37;99288.84;;;8.87;84.69
81628;BME280;71036;51.102;6.514;2024-03-02T00:24:17;99309.75;;;8.83;84.80
81628;BME280;71036;51.102;6.514;2024-03-02T00:26:45;99289.31;;;8.82;84.82
81628;BME280;71036;51.102;6.514;2024-03-02T00:29:13;99296.91;;;8.77;85.97
81628;BME280;71036;51.102;6.514;2024-03-02T00:31:40;99299.31;;;8.71;86.44
81628;BME280;71036;51.102;6.514;2024-03-02T00:34:06;99305.25;;;8.74;86.28
81628;BME280;71036;51.102;6.514;2024-03-02T00:36:31;99288.59;;;8.71;86.24
81628;BME280;71036;51.102;6.514;2024-03-02T00:38:57;99273.34;;;8.71;85.99
81628;BME280;71036;51.102;6.514;2024-03-02T00:41:30;99281.53;;;8.79;85.30
81628;BME280;71036;51.102;6.514;2024-03-02T00:44:05;99295.34;;;8.75;86.25
81628;BME280;71036;51.102;6.514;2024-03-02T00:46:35;99286.75;;;8.71;85.96
81628;BME280;71036;51.102;6.514;2024-03-02T00:49:06;99282.09;;;8.64;87.02
81628;BME280;71036;51.102;6.514;2024-03-02T00:51:37;99285.78;;;8.63;86.69
81628;BME280;71036;51.102;6.514;2024-03-02T00:54:04;99274.78;;;8.66;86.78
81628;BME280;71036;51.102;6.514;2024-03-02T00:56:31;99284.63;;;8.65;87.22
81628;BME280;71036;51.102;6.514;2024-03-02T00:58:57;99261.75;;;8.52;87.76
81628;BME280;71036;51.102;6.514;2024-03-02T01:01:22;99264.59;;;8.50;87.90
81628;BME280;71036;51.102;6.514;2024-03-02T01:03:49;99274.75;;;8.56;87.75
81628;BME280;71036;51.102;6.514;2024-03-02T01:06:15;99256.97;;;8.55;87.50
81628;BME280;71036;51.102;6.514;2024-03-02T01:08:41;99289.97;;;8.56;87.82
81628;BME280;71036;51.102;6.514;2024-03-02T01:11:06;99271.91;;;8.58;88.02
81628;BME280;71036;51.102;6.514;2024-03-02T01:13:32;99265.28;;;8.52;88.08
81628;BME280;71036;51.102;6.514;2024-03-02T01:15:58;99276.16;;;8.51;88.39
81628;BME280;71036;51.102;6.514;2024-03-02T01:18:24;99272.50;;;8.61;87.86
81628;BME280;71036;51.102;6.514;2024-03-02T01:20:50;99275.88;;;8.54;88.73
81628;BME280;71036;51.102;6.514;2024-03-02T01:23:20;99274.03;;;8.44;89.17
81628;BME280;71036;51.102;6.514;2024-03-02T01:25:48;99288.72;;;8.50;89.19
81628;BME280;71036;51.102;6.514;2024-03-02T01:28:14;99284.31;;;8.49;89.65
81628;BME280;71036;51.102;6.514;2024-03-02T01:30:40;99278.38;;;8.45;89.31
81628;BME280;71036;51.102;6.514;2024-03-02T01:33:06;99273.31;;;8.42;89.74
81628;BME280;71036;51.102;6.514;2024-03-02T01:35:32;99278.97;;;8.49;89.69
81628;BME280;71036;51.102;6.514;2024-03-02T01:37:57;99276.28;;;8.49;89.77
81628;BME280;71036;51.102;6.514;2024-03-02T01:40:22;99284.19;;;8.41;90.57
81628;BME280;71036;51.102;6.514;2024-03-02T01:42:51;99270.78;;;8.41;90.13
81628;BME280;71036;51.102;6.514;2024-03-02T01:45:17;99274.88;;;8.35;90.99
81628;BME280;71036;51.102;6.514;2024-03-02T01:47:43;99282.63;;;8.38;90.83
81628;BME280;71036;51.102;6.514;2024-03-02T01:50:10;99282.34;;;8.41;90.63
81628;BME280;71036;51.102;6.514;2024-03-02T01:52:36;99301.81;;;8.53;89.50
81628;BME280;71036;51.102;6.514;2024-03-02T01:55:02;99289.97;;;8.46;90.51
81628;BME280;71036;51.102;6.514;2024-03-02T01:57:29;99287.16;;;8.48;90.92
81628;BME280;71036;51.102;6.514;2024-03-02T01:59:54;99294.06;;;8.50;90.10
81628;BME280;71036;51.102;6.514;2024-03-02T02:02:20;99298.44;;;8.51;90.41
81628;BME280;71036;51.102;6.514;2024-03-02T02:04:45;99288.84;;;8.58;90.09
81628;BME280;71036;51.102;6.514;2024-03-02T02:07:10;99295.34;;;8.56;89.87
81628;BME280;71036;51.102;6.514;2024-03-02T02:09:36;99299.28;;;8.61;90.30
81628;BME280;71036;51.102;6.514;2024-03-02T02:12:02;99295.34;;;8.56;90.68
81628;BME280;71036;51.102;6.514;2024-03-02T02:14:27;99299.28;;;8.52;91.24
81628;BME280;71036;51.102;6.514;2024-03-02T02:16:53;99298.88;;;8.56;90.78
81628;BME280;71036;51.102;6.514;2024-03-02T02:19:19;99295.91;;;8.50;91.66
81628;BME280;71036;51.102;6.514;2024-03-02T02:21:44;99298.00;;;8.46;92.08
81628;BME280;71036;51.102;6.514;2024-03-02T02:24:10;99296.03;;;8.48;91.86
81628;BME280;71036;51.102;6.514;2024-03-02T02:26:35;99292.50;;;8.48;91.80
81628;BME280;71036;51.102;6.514;2024-03-02T02:29:00;99292.63;;;8.46;92.17
81628;BME280;71036;51.102;6.514;2024-03-02T02:31:26;99294.75;;;8.42;92.51
81628;BME280;71036;51.102;6.514;2024-03-02T02:33:51;99288.81;;;8.49;92.24
81628;BME280;71036;51.102;6.514;2024-03-02T02:36:16;99304.06;;;8.58;91.94
81628;BME280;71036;51.102;6.514;2024-03-02T02:38:44;99299.16;;;8.53;92.88
81628;BME280;71036;51.102;6.514;2024-03-02T02:41:11;99301.81;;;8.43;93.98
81628;BME280;71036;51.102;6.514;2024-03-02T02:43:36;99297.28;;;8.44;94.72
81628;BME280;71036;51.102;6.514;2024-03-02T02:46:01;99300.41;;;8.39;96.39
81628;BME280;71036;51.102;6.514;2024-03-02T02:48:27;99302.31;;;8.28;99.08
81628;BME280;71036;51.102;6.514;2024-03-02T02:50:52;99298.75;;;8.18;100.00
81628;BME280;71036;51.102;6.514;2024-03-02T02:53:17;99302.94;;;8.11;100.00
81628;BME280;71036;51.102;6.514;2024-03-02T02:55:42;99306.63;;;8.10;100.00
81628;BME280;71036;51.102;6.514;2024-03-02T02:58:09;99307.06;;;8.15;100.00
81628;BME280;71036;51.102;6.514;2024-03-02T03:00:34;99290.84;;;8.16;100.00
81628;BME280;71036;51.102;6.514;2024-03-02T03:02:59;99308.03;;;8.14;100.00
81628;BME280;71036;51.102;6.514;2024-03-02T03:05:25;99316.91;;;8.14;100.00
81628;BME280;71036;51.102;6.514;2024-03-02T03:07:50;99322.13;;;8.06;100.00
81628;BME280;71036;51.102;6.514;2024-03-02T03:10:16;99323.03;;;7.96;100.00
81628;BME280;71036;51.102;6.514;2024-03-02T03:12:42;99320.94;;;7.89;100.00
81628;BME280;71036;51.102;6.514;2024-03-02T03:15:08;99314.53;;;7.81;100.00
81628;BME280;71036;51.102;6.514;2024-03-02T03:17:34;99310.81;;;7.72;100.00
81628;BME280;71036;51.102;6.514;2024-03-02T03:20:01;99322.06;;;7.66;100.00
81628;BME280;71036;51.102;6.514;2024-03-02T03:22:29;99316.41;;;7.60;100.00
81628;BME280;71036;51.102;6.514;2024-03-02T03:24:54;99321.88;;;7.58;100.00
81628;BME280;71036;51.102;6.514;2024-03-02T03:27:19;99324.97;;;7.54;100.00
81628;BME280;71036;51.102;6.514;2024-03-02T03:29:45;99314.78;;;7.48;100.00
81628;BME280;71036;51.102;6.514;2024-03-02T03:32:10;99319.28;;;7.47;100.00
81628;BME280;71036;51.102;6.514;2024-03-02T03:34:35;99314.91;;;7.46;100.00
81628;BME280;71036;51.102;6.514;2024-03-02T03:37:01;99315.31;;;7.42;100.00
81628;BME280;71036;51.102;6.514;2024-03-02T03:39:27;99312.63;;;7.42;100.00
81628;BME280;71036;51.102;6.514;2024-03-02T03:41:53;99305.84;;;7.38;100.00
81628;BME280;71036;51.102;6.514;2024-03-02T03:44:18;99295.38;;;7.25;100.00
81628;BME280;71036;51.102;6.514;2024-03-02T03:46:43;99306.31;;;7.22;100.00
81628;BME280;71036;51.102;6.514;2024-03-02T03:49:08;99306.63;;;7.08;100.00
81628;BME280;71036;51.102;6.514;2024-03-02T03:51:34;99299.38;;;6.99;100.00
81628;BME280;71036;51.102;6.514;2024-03-02T03:54:00;99306.56;;;6.98;100.00
81628;BME280;71036;51.102;6.514;2024-03-02T03:56:25;99315.09;;;6.92;100.00
81628;BME280;71036;51.102;6.514;2024-03-02T03:58:51;99303.63;;;7.01;100.00
81628;BME280;71036;51.102;6.514;2024-03-02T04:01:16;99308.84;;;7.03;100.00
81628;BME280;71036;51.102;6.514;2024-03-02T04:03:41;99312.47;;;7.02;100.00
81628;BME280;71036;51.102;6.514;2024-03-02T04:06:06;99311.41;;;7.04;100.00
81628;BME280;71036;51.102;6.514;2024-03-02T04:08:32;99313.22;;;7.04;100.00
81628;BME280;71036;51.102;6.514;2024-03-02T04:10:57;99302.53;;;7.04;100.00
81628;BME280;71036;51.102;6.514;2024-03-02T04:13:22;99309.19;;;7.09;100.00
81628;BME280;71036;51.102;6.514;2024-03-02T04:15:48;99312.97;;;7.07;100.00
81628;BME280;71036;51.102;6.514;2024-03-02T04:18:13;99307.72;;;7.05;100.00
81628;BME280;71036;51.102;6.514;2024-03-02T04:20:38;99296.34;;;7.03;100.00
81628;BME280;71036;51.102;6.514;2024-03-02T04:23:04;99312.38;;;7.03;100.00
81628;BME280;71036;51.102;6.514;2024-03-02T04:25:29;99317.91;;;7.11;100.00
81628;BME280;71036;51.102;6.514;2024-03-02T04:27:54;99318.75;;;7.12;100.00
81628;BME280;71036;51.102;6.514;2024-03-02T04:30:20;99316.63;;;7.26;100.00
81628;BME280;71036;51.102;6.514;2024-03-02T04:32:45;99310.75;;;7.32;100.00
81628;BME280;71036;51.102;6.514;2024-03-02T04:35:14;99317.47;;;7.48;100.00
81628;BME280;71036;51.102;6.514;2024-03-02T04:37:39;99319.47;;;7.55;100.00
81628;BME280;71036;51.102;6.514;2024-03-02T04:40:05;99306.16;;;7.65;100.00
81628;BME280;71036;51.102;6.514;2024-03-02T04:42:34;99306.00;;;7.66;100.00
81628;BME280;71036;51.102;6.514;2024-03-02T04:44:59;99312.94;;;7.69;100.00
81628;BME280;71036;51.102;6.514;2024-03-02T04:47:24;99319.69;;;7.73;100.00
81628;BME280;71036;51.102;6.514;2024-03-02T04:49:50;99305.47;;;7.72;100.00
81628;BME280;71036;51.102;6.514;2024-03-02T04:52:15;99317.78;;;7.84;100.00
81628;BME280;71036;51.102;6.514;2024-03-02T04:54:41;99325.00;;;7.94;100.00
81628;BME280;71036;51.102;6.514;2024-03-02T04:57:26;99330.81;;;7.99;100.00
81628;BME280;71036;51.102;6.514;2024-03-02T04:59:52;99331.81;;;7.98;100.00
81628;BME280;71036;51.102;6.514;2024-03-02T05:02:17;99329.81;;;8.00;100.00
81628;BME280;71036;51.102;6.514;2024-03-02T05:04:42;99327.56;;;7.95;100.00
81628;BME280;71036;51.102;6.514;2024-03-02T05:07:07;99339.25;;;7.94;100.00
81628;BME280;71036;51.102;6.514;2024-03-02T05:09:33;99331.47;;;7.91;100.00
81628;BME280;71036;51.102;6.514;2024-03-02T05:11:58;99338.94;;;7.87;100.00
81628;BME280;71036;51.102;6.514;2024-03-02T05:14:42;99334.75;;;7.95;100.00
81628;BME280;71036;51.102;6.514;2024-03-02T05:17:07;99322.91;;;7.97;100.00
81628;BME280;71036;51.102;6.514;2024-03-02T05:19:32;99332.94;;;8.05;100.00
81628;BME280;71036;51.102;6.514;2024-03-02T05:21:58;99321.25;;;8.06;100.00
81628;BME280;71036;51.102;6.514;2024-03-02T05:24:23;99322.38;;;8.03;100.00
81628;BME280;71036;51.102;6.514;2024-03-02T05:26:48;99327.56;;;7.95;100.00
81628;BME280;71036;51.102;6.514;2024-03-02T05:29:14;99334.59;;;7.96;100.00
81628;BME280;71036;51.102;6.514;2024-03-02T05:31:39;99337.69;;;7.92;100.00
81628;BME280;71036;51.102;6.514;2024-03-02T05:34:05;99332.16;;;7.83;100.00
81628;BME280;71036;51.102;6.514;2024-03-02T05:36:31;99335.75;;;7.73;100.00
81628;BME280;71036;51.102;6.514;2024-03-02T05:38:56;99347.56;;;7.70;100.00
81628;BME280;71036;51.102;6.514;2024-03-02T05:41:22;99355.00;;;7.67;100.00
81628;BME280;71036;51.102;6.514;2024-03-02T05:43:47;99347.56;;;7.70;100.00
81628;BME280;71036;51.102;6.514;2024-03-02T05:46:13;99340.53;;;7.69;100.00
81628;BME280;71036;51.102;6.514;2024-03-02T05:48:38;99351.97;;;7.71;100.00
81628;BME280;71036;51.102;6.514;2024-03-02T05:51:03;99353.19;;;7.67;100.00
81628;BME280;71036;51.102;6.514;2024-03-02T05:53:29;99366.84;;;7.64;100.00
81628;BME280;71036;51.102;6.514;2024-03-02T05:55:54;99362.66;;;7.71;100.00
81628;BME280;71036;51.102;6.514;2024-03-02T05:58:21;99353.47;;;7.64;100.00
81628;BME280;71036;51.102;6.514;2024-03-02T06:00:53;99360.50;;;7.65;100.00
81628;BME280;71036;51.102;6.514;2024-03-02T06:03:19;99342.22;;;7.70;100.00
81628;BME280;71036;51.102;6.514;2024-03-02T06:05:44;99362.34;;;7.65;100.00
81628;BME280;71036;51.102;6.514;2024-03-02T06:08:10;99368.53;;;7.65;100.00
81628;BME280;71036;51.102;6.514;2024-03-02T06:10:35;99369.13;;;7.69;100.00
81628;BME280;71036;51.102;6.514;2024-03-02T06:13:00;99356.56;;;7.69;100.00
81628;BME280;71036;51.102;6.514;2024-03-02T06:15:26;99367.09;;;7.61;100.00
81628;BME280;71036;51.102;6.514;2024-03-02T06:17:51;99358.38;;;7.59;100.00
81628;BME280;71036;51.102;6.514;2024-03-02T06:20:16;99371.03;;;7.57;100.00
81628;BME280;71036;51.102;6.514;2024-03-02T06:22:42;99371.03;;;7.57;100.00
81628;BME280;71036;51.102;6.514;2024-03-02T06:25:07;99370.19;;;7.57;100.00
81628;BME280;71036;51.102;6.514;2024-03-02T06:27:32;99361.41;;;7.55;100.00
81628;BME280;71036;51.102;6.514;2024-03-02T06:29:58;99368.66;;;7.64;100.00
81628;BME280;71036;51.102;6.514;2024-03-02T06:32:23;99354.13;;;7.57;100.00
81628;BME280;71036;51.102;6.514;2024-03-02T06:34:50;99361.63;;;7.63;100.00
81628;BME280;71036;51.102;6.514;2024-03-02T06:37:15;99361.75;;;7.61;100.00
81628;BME280;71036;51.102;6.514;2024-03-02T06:39:41;99364.16;;;7.64;100.00
81628;BME280;71036;51.102;6.514;2024-03-02T06:42:06;99388.13;;;7.66;100.00
81628;BME280;71036;51.102;6.514;2024-03-02T06:44:32;99385.91;;;7.71;100.00
81628;BME280;71036;51.102;6.514;2024-03-02T06:46:57;99377.94;;;7.80;100.00
81628;BME280;71036;51.102;6.514;2024-03-02T06:49:22;99389.94;;;7.86;100.00
81628;BME280;71036;51.102;6.514;2024-03-02T06:51:47;99389.78;;;7.87;100.00
81628;BME280;71036;51.102;6.514;2024-03-02T06:54:13;99391.22;;;7.92;100.00
81628;BME280;71036;51.102;6.514;2024-03-02T06:56:38;99391.94;;;7.94;100.00
81628;BME280;71036;51.102;6.514;2024-03-02T06:59:04;99397.16;;;7.95;100.00
81628;BME280;71036;51.102;6.514;2024-03-02T07:01:32;99404.63;;;7.92;100.00
81628;BME280;71036;51.102;6.514;2024-03-02T07:03:57;99409.75;;;8.04;100.00
81628;BME280;71036;51.102;6.514;2024-03-02T07:06:23;99408.81;;;8.15;100.00
81628;BME280;71036;51.102;6.514;2024-03-02T07:08:48;99407.63;;;8.08;100.00
81628;BME280;71036;51.102;6.514;2024-03-02T07:11:13;99414.00;;;8.07;100.00
81628;BME280;71036;51.102;6.514;2024-03-02T07:13:38;99412.22;;;7.96;100.00
81628;BME280;71036;51.102;6.514;2024-03-02T07:16:04;99401.66;;;7.95;100.00
81628;BME280;71036;51.102;6.514;2024-03-02T07:18:30;99402.28;;;8.08;100.00
81628;BME280;71036;51.102;6.514;2024-03-02T07:20:59;99400.09;;;8.22;100.00
81628;BME280;71036;51.102;6.514;2024-03-02T07:23:29;99400.53;;;8.18;100.00
81628;BME280;71036;51.102;6.514;2024-03-02T07:25:55;99401.50;;;8.17;100.00
81628;BME280;71036;51.102;6.514;2024-03-02T07:28:24;99408.81;;;8.15;100.00
81628;BME280;71036;51.102;6.514;2024-03-02T07:31:05;99420.56;;;8.23;100.00
81628;BME280;71036;51.102;6.514;2024-03-02T07:33:30;99420.06;;;8.29;100.00
81628;BME280;71036;51.102;6.514;2024-03-02T07:35:56;99429.09;;;8.38;100.00
81628;BME280;71036;51.102;6.514;2024-03-02T07:38:22;99443.63;;;8.35;100.00
81628;BME280;71036;51.102;6.514;2024-03-02T07:40:48;99442.25;;;8.41;100.00
81628;BME280;71036;51.102;6.514;2024-03-02T07:43:16;99442.50;;;8.38;100.00
81628;BME280;71036;51.102;6.514;2024-03-02T07:45:42;99449.97;;;8.34;100.00
81628;BME280;71036;51.102;6.514;2024-03-02T07:48:07;99445.72;;;8.32;100.00
81628;BME280;71036;51.102;6.514;2024-03-02T07:50:33;99443.03;;;8.32;100.00
81628;BME280;71036;51.102;6.514;2024-03-02T07:53:03;99446.41;;;8.34;100.00
81628;BME280;71036;51.102;6.514;2024-03-02T07:55:29;99450.50;;;8.28;100.00
81628;BME280;71036;51.102;6.514;2024-03-02T07:57:55;99450.97;;;8.33;100.00
81628;BME280;71036;51.102;6.514;2024-03-02T08:00:21;99462.66;;;8.32;100.00
81628;BME280;71036;51.102;6.514;2024-03-02T08:02:47;99467.19;;;8.41;100.00
81628;BME280;71036;51.102;6.514;2024-03-02T08:05:13;99464.97;;;8.47;100.00
81628;BME280;71036;51.102;6.514;2024-03-02T08:07:38;99460.41;;;8.37;100.00
81628;BME280;71036;51.102;6.514;2024-03-02T08:10:04;99461.25;;;8.38;100.00
81628;BME280;71036;51.102;6.514;2024-03-02T08:12:30;99461.41;;;8.36;100.00
81628;BME280;71036;51.102;6.514;2024-03-02T08:14:55;99465.94;;;8.45;100.00
81628;BME280;71036;51.102;6.514;2024-03-02T08:17:21;99475.03;;;8.54;100.00
81628;BME280;71036;51.102;6.514;2024-03-02T08:19:46;99479.53;;;8.54;100.00
81628;BME280;71036;51.102;6.514;2024-03-02T08:22:13;99475.56;;;8.48;100.00
81628;BME280;71036;51.102;6.514;2024-03-02T08:24:39;99462.47;;;9.14;100.00
81628;BME280;71036;51.102;6.514;2024-03-02T08:27:04;99458.19;;;11.00;90.65
81628;BME280;71036;51.102;6.514;2024-03-02T08:29:29;99447.34;;;12.75;80.29
81628;BME280;71036;51.102;6.514;2024-03-02T08:31:55;99448.56;;;12.80;74.17
81628;BME280;71036;51.102;6.514;2024-03-02T08:34:20;99449.03;;;11.73;79.02
81628;BME280;71036;51.102;6.514;2024-03-02T08:36:46;99455.09;;;11.40;85.26
81628;BME280;71036;51.102;6.514;2024-03-02T08:39:12;99459.00;;;11.45;82.10
81628;BME280;71036;51.102;6.514;2024-03-02T08:41:47;99467.53;;;10.41;88.32
81628;BME280;71036;51.102;6.514;2024-03-02T08:44:13;99463.22;;;9.73;93.40
81628;BME280;71036;51.102;6.514;2024-03-02T08:46:39;99463.66;;;9.69;95.55
81628;BME280;71036;51.102;6.514;2024-03-02T08:49:05;99460.38;;;9.75;95.08
81628;BME280;71036;51.102;6.514;2024-03-02T08:51:31;99471.97;;;10.13;92.86
81628;BME280;71036;51.102;6.514;2024-03-02T08:53:57;99465.63;;;10.15;91.28
81628;BME280;71036;51.102;6.514;2024-03-02T08:56:23;99471.69;;;9.97;92.25
81628;BME280;71036;51.102;6.514;2024-03-02T08:58:49;99470.97;;;9.95;92.61
81628;BME280;71036;51.102;6.514;2024-03-02T09:01:15;99469.28;;;9.94;91.85
81628;BME280;71036;51.102;6.514;2024-03-02T09:03:41;99465.31;;;11.89;83.75
81628;BME280;71036;51.102;6.514;2024-03-02T09:06:09;99458.09;;;12.67;72.42
81628;BME280;71036;51.102;6.514;2024-03-02T09:08:35;99462.41;;;12.52;74.41
81628;BME280;71036;51.102;6.514;2024-03-02T09:11:01;99453.56;;;13.75;65.80
81628;BME280;71036;51.102;6.514;2024-03-02T09:13:27;99465.19;;;11.73;74.66
81628;BME280;71036;51.102;6.514;2024-03-02T09:15:52;99465.19;;;11.91;77.11
81628;BME280;71036;51.102;6.514;2024-03-02T09:18:18;99465.88;;;11.75;75.75
81628;BME280;71036;51.102;6.514;2024-03-02T09:20:43;99469.94;;;11.61;77.39
81628;BME280;71036;51.102;6.514;2024-03-02T09:23:08;99480.50;;;12.59;69.70
81628;BME280;71036;51.102;6.514;2024-03-02T09:25:34;99476.03;;;13.84;63.03
81628;BME280;71036;51.102;6.514;2024-03-02T09:27:59;99457.53;;;13.31;64.09
81628;BME280;71036;51.102;6.514;2024-03-02T09:30:24;99466.22;;;12.41;69.74
81628;BME280;71036;51.102;6.514;2024-03-02T09:32:50;99452.22;;;12.38;69.78
81628;BME280;71036;51.102;6.514;2024-03-02T09:35:15;99462.47;;;11.38;75.18
81628;BME280;71036;51.102;6.514;2024-03-02T09:37:40;99461.81;;;11.08;76.60
81628;BME280;71036;51.102;6.514;2024-03-02T09:40:06;99463.53;;;11.09;78.46
81628;BME280;71036;51.102;6.514;2024-03-02T09:42:32;99460.00;;;11.27;78.04
81628;BME280;71036;51.102;6.514;2024-03-02T09:44:57;99455.41;;;11.72;74.86
81628;BME280;71036;51.102;6.514;2024-03-02T09:47:23;99451.38;;;12.37;70.22
81628;BME280;71036;51.102;6.514;2024-03-02T09:49:48;99449.88;;;13.10;67.30
81628;BME280;71036;51.102;6.514;2024-03-02T09:52:14;99457.44;;;13.81;63.79
81628;BME280;71036;51.102;6.514;2024-03-02T09:54:40;99461.50;;;14.01;60.30
81628;BME280;71036;51.102;6.514;2024-03-02T09:57:05;99472.81;;;14.04;59.58
81628;BME280;71036;51.102;6.514;2024-03-02T09:59:31;99453.03;;;14.12;58.52
81628;BME280;71036;51.102;6.514;2024-03-02T10:02:00;99454.19;;;14.58;57.47
81628;BME280;71036;51.102;6.514;2024-03-02T10:04:27;99458.91;;;14.64;56.51
81628;BME280;71036;51.102;6.514;2024-03-02T10:07:15;99455.91;;;13.94;58.23
81628;BME280;71036;51.102;6.514;2024-03-02T10:09:42;99447.88;;;14.66;56.53
81628;BME280;71036;51.102;6.514;2024-03-02T10:12:09;99445.69;;;15.39;53.99
81628;BME280;71036;51.102;6.514;2024-03-02T10:14:35;99470.50;;;15.58;52.47
81628;BME280;71036;51.102;6.514;2024-03-02T10:17:21;99457.13;;;14.32;54.07
81628;BME280;71036;51.102;6.514;2024-03-02T10:19:46;99446.78;;;14.03;54.86
81628;BME280;71036;51.102;6.514;2024-03-02T10:22:13;99451.66;;;14.24;53.98
81628;BME280;71036;51.102;6.514;2024-03-02T10:24:43;99449.66;;;14.26;54.19
81628;BME280;71036;51.102;6.514;2024-03-02T10:27:19;99458.75;;;14.57;53.33
81628;BME280;71036;51.102;6.514;2024-03-02T10:29:48;99446.38;;;14.63;53.37
81628;BME280;71036;51.102;6.514;2024-03-02T10:32:13;99442.06;;;14.38;53.75
81628;BME280;71036;51.102;6.514;2024-03-02T10:34:45;99442.47;;;14.66;53.88
81628;BME280;71036;51.102;6.514;2024-03-02T10:37:12;99425.75;;;15.32;52.63
81628;BME280;71036;51.102;6.514;2024-03-02T10:39:39;99430.34;;;15.31;52.32
81628;BME280;71036;51.102;6.514;2024-03-02T10:42:06;99427.31;;;14.95;51.22
81628;BME280;71036;51.102;6.514;2024-03-02T10:44:32;99423.97;;;14.85;53.27
81628;BME280;71036;51.102;6.514;2024-03-02T10:47:03;99415.16;;;15.45;50.90
81628;BME280;71036;51.102;6.514;2024-03-02T10:49:32;99420.28;;;15.85;50.19
81628;BME280;71036;51.102;6.514;2024-03-02T10:51:58;99421.81;;;17.13;46.58
81628;BME280;71036;51.102;6.514;2024-03-02T10:54:24;99408.97;;;18.27;45.04
81628;BME280;71036;51.102;6.514;2024-03-02T10:56:53;99425.16;;;18.97;42.86
81628;BME280;71036;51.102;6.514;2024-03-02T10:59:26;99419.56;;;17.52;45.06
81628;BME280;71036;51.102;6.514;2024-03-02T11:02:03;99422.06;;;17.89;45.62
81628;BME280;71036;51.102;6.514;2024-03-02T11:04:31;99416.34;;;18.95;44.02
81628;BME280;71036;51.102;6.514;2024-03-02T11:07:02;99408.56;;;18.30;44.18
81628;BME280;71036;51.102;6.514;2024-03-02T11:09:29;99389.41;;;18.79;44.04
81628;BME280;71036;51.102;6.514;2024-03-02T11:12:17;99391.28;;;18.79;44.65
81628;BME280;71036;51.102;6.514;2024-03-02T11:14:44;99408.69;;;17.52;45.32
81628;BME280;71036;51.102;6.514;2024-03-02T11:17:10;99415.06;;;18.02;44.30
81628;BME280;71036;51.102;6.514;2024-03-02T11:19:38;99413.63;;;17.27;45.52
81628;BME280;71036;51.102;6.514;2024-03-02T11:22:05;99414.13;;;17.52;44.73
81628;BME280;71036;51.102;6.514;2024-03-02T11:24:31;99398.94;;;17.22;46.55
81628;BME280;71036;51.102;6.514;2024-03-02T11:27:06;99394.00;;;17.11;46.06
81628;BME280;71036;51.102;6.514;2024-03-02T11:32:13;99407.91;;;15.68;48.55
81628;BME280;71036;51.102;6.514;2024-03-02T11:34:49;99399.75;;;16.87;46.91
81628;BME280;71036;51.102;6.514;2024-03-02T11:37:19;99406.97;;;16.79;47.06
81628;BME280;71036;51.102;6.514;2024-03-02T11:39:50;99400.13;;;16.40;47.59
81628;BME280;71036;51.102;6.514;2024-03-02T11:42:16;99384.19;;;16.22;47.96
81628;BME280;71036;51.102;6.514;2024-03-02T11:44:45;99395.16;;;16.29;48.24
81628;BME280;71036;51.102;6.514;2024-03-02T11:47:12;99387.88;;;16.88;46.66
81628;BME280;71036;51.102;6.514;2024-03-02T11:49:49;99378.72;;;15.93;47.75
81628;BME280;71036;51.102;6.514;2024-03-02T11:52:16;99377.72;;;14.95;50.28
81628;BME280;71036;51.102;6.514;2024-03-02T11:54:44;99377.63;;;14.33;51.39
81628;BME280;71036;51.102;6.514;2024-03-02T11:57:18;99370.78;;;13.66;53.83
81628;BME280;71036;51.102;6.514;2024-03-02T11:59:45;99370.63;;;13.76;55.95
81628;BME280;71036;51.102;6.514;2024-03-02T12:02:18;99374.50;;;13.57;57.05
81628;BME280;71036;51.102;6.514;2024-03-02T12:04:45;99373.63;;;13.24;58.71
81628;BME280;71036;51.102;6.514;2024-03-02T12:07:11;99358.31;;;13.49;58.64
81628;BME280;71036;51.102;6.514;2024-03-02T12:09:37;99345.44;;;13.27;60.19
81628;BME280;71036;51.102;6.514;2024-03-02T12:12:07;99332.97;;;13.66;59.78
81628;BME280;71036;51.102;6.514;2024-03-02T12:14:35;99343.47;;;13.61;60.27
81628;BME280;71036;51.102;6.514;2024-03-02T12:17:00;99318.25;;;13.85;60.15
81628;BME280;71036;51.102;6.514;2024-03-02T12:19:26;99336.50;;;13.75;61.03
81628;BME280;71036;51.102;6.514;2024-03-02T12:21:53;99328.94;;;13.38;60.04
81628;BME280;71036;51.102;6.514;2024-03-02T12:24:18;99314.94;;;13.59;60.97
81628;BME280;71036;51.102;6.514;2024-03-02T12:26:44;99344.28;;;13.21;61.44
81628;BME280;71036;51.102;6.514;2024-03-02T12:29:10;99316.94;;;13.16;62.61
81628;BME280;71036;51.102;6.514;2024-03-02T12:31:35;99306.31;;;13.47;63.72
81628;BME280;71036;51.102;6.514;2024-03-02T12:34:02;99310.50;;;13.82;62.63
81628;BME280;71036;51.102;6.514;2024-03-02T12:36:28;99324.38;;;13.22;63.20
81628;BME280;71036;51.102;6.514;2024-03-02T12:38:53;99308.19;;;13.46;63.70
81628;BME280;71036;51.102;6.514;2024-03-02T12:41:20;99308.84;;;13.65;61.87
81628;BME280;71036;51.102;6.514;2024-03-02T12:43:45;99305.16;;;14.13;61.01
81628;BME280;71036;51.102;6.514;2024-03-02T12:46:10;99307.06;;;14.04;60.13
81628;BME280;71036;51.102;6.514;2024-03-02T12:48:36;99316.50;;;14.08;60.21
81628;BME280;71036;51.102;6.514;2024-03-02T12:51:02;99307.22;;;14.11;59.28
81628;BME280;71036;51.102;6.514;2024-03-02T12:53:28;99312.38;;;14.28;59.78
81628;BME280;71036;51.102;6.514;2024-03-02T12:55:53;99312.72;;;13.70;62.43
81628;BME280;71036;51.102;6.514;2024-03-02T12:58:22;99308.66;;;13.42;61.63
81628;BME280;71036;51.102;6.514;2024-03-02T13:00:47;99307.84;;;13.25;63.27
81628;BME280;71036;51.102;6.514;2024-03-02T13:03:12;99305.81;;;13.27;64.23